Time;durP1;ratioP1;P1;durP2;ratioP2;P2;SDS_P1;SDS_P2;PMS_P1;PMS_P2;Temp;Humidity;BMP_temperature;BMP_pressure;BME280_temperature;BME280_humidity;BME280_pressure;Samples;Min_cycle;Max_cycle;Signal;HPM_P1;HPM_P2
2022/06/16 00:12:46;;;;;;;6.68;3.18;;;;;;;15.70;97.57;100650.88;712460;1177;115501;-71
2022/06/16 00:27:49;;;;;;;4.83;3.43;;;;;;;15.74;98.04;100650.38;712403;1180;116119;-70
2022/06/16 00:42:51;;;;;;;7.13;4.10;;;;;;;15.73;98.77;100640.81;712520;1179;115028;-71
2022/06/16 00:57:55;;;;;;;6.20;3.90;;;;;;;15.82;98.99;100646.97;712490;1177;115730;-70
2022/06/16 01:13:43;;;;;;;8.53;4.98;;;;;;;15.67;98.71;100646.73;712725;1177;115505;-71
2022/06/16 01:29:04;;;;;;;7.20;4.53;;;;;;;15.48;99.55;100637.25;712762;1179;115821;-72
2022/06/16 01:44:29;;;;;;;9.30;4.23;;;;;;;15.42;99.91;100636.05;712388;1180;115799;-71
2022/06/16 02:00:10;;;;;;;21.03;9.73;;;;;;;15.46;100.00;100634.74;713481;1177;115320;-71
2022/06/16 02:15:21;;;;;;;16.65;9.95;;;;;;;15.26;100.00;100636.80;712474;1178;115799;-71
2022/06/16 02:30:31;;;;;;;21.70;9.23;;;;;;;15.20;100.00;100639.25;712463;1178;115771;-71
2022/06/16 02:46:10;;;;;;;79.40;22.80;;;;;;;15.21;100.00;100631.16;712628;1177;116024;-71
2022/06/16 03:01:12;;;;;;;9.23;6.13;;;;;;;15.17;100.00;100621.08;712590;1178;115957;-72
2022/06/16 03:16:15;;;;;;;30.60;10.50;;;;;;;15.41;100.00;100625.64;712735;1179;114954;-71
2022/06/16 03:31:17;;;;;;;11.90;5.45;;;;;;;15.64;100.00;100625.91;713164;1178;116214;-71
2022/06/16 03:46:19;;;;;;;8.37;5.33;;;;;;;15.86;100.00;100616.56;713109;1178;116300;-71
2022/06/16 04:01:23;;;;;;;8.20;5.50;;;;;;;16.05;99.87;100602.22;712996;1178;114829;-72
2022/06/16 04:16:25;;;;;;;8.28;5.95;;;;;;;16.23;99.15;100595.95;712936;1180;115924;-71
2022/06/16 04:31:29;;;;;;;7.55;5.10;;;;;;;16.41;97.92;100586.02;712808;1178;115621;-71
2022/06/16 04:46:32;;;;;;;6.67;5.60;;;;;;;16.60;97.36;100584.02;712798;1178;115918;-71
2022/06/16 05:01:34;;;;;;;10.88;6.30;;;;;;;16.87;96.44;100577.52;712600;1180;115706;-72
2022/06/16 05:16:37;;;;;;;9.70;5.45;;;;;;;17.52;95.37;100585.44;712962;1177;116255;-73
2022/06/16 05:31:40;;;;;;;9.50;5.47;;;;;;;18.04;93.81;100597.25;712725;1178;114915;-71
2022/06/16 05:46:44;;;;;;;9.28;5.15;;;;;;;18.30;92.47;100578.30;712852;1179;115739;-71
2022/06/16 06:01:46;;;;;;;8.03;5.23;;;;;;;18.95;90.53;100570.73;712898;1177;116049;-73
2022/06/16 06:16:49;;;;;;;11.00;6.57;;;;;;;19.79;87.77;100573.00;713208;1180;116242;-72
2022/06/16 06:31:53;;;;;;;7.50;3.95;;;;;;;20.25;86.23;100560.33;713775;1178;115693;-73
2022/06/16 06:46:55;;;;;;;7.03;4.08;;;;;;;20.86;84.34;100553.59;713278;1177;115203;-74
2022/06/16 07:01:58;;;;;;;4.53;3.07;;;;;;;21.21;82.01;100559.72;712803;1177;115793;-71
2022/06/16 07:17:01;;;;;;;8.43;4.47;;;;;;;21.23;80.87;100575.52;712989;1177;114988;-71
2022/06/16 07:32:04;;;;;;;9.63;3.58;;;;;;;21.49;81.08;100579.33;713104;1180;114392;-73
2022/06/16 07:47:07;;;;;;;4.00;2.80;;;;;;;21.82;78.60;100573.29;712825;1177;115716;-75
2022/06/16 08:02:09;;;;;;;4.00;2.40;;;;;;;22.60;74.64;100570.84;712760;1180;114228;-77
2022/06/16 08:17:26;;;;;;;4.20;2.70;;;;;;;23.41;73.12;100562.61;712726;1179;114317;-72
2022/06/16 08:32:29;;;;;;;5.43;3.60;;;;;;;23.97;72.18;100561.08;713041;1180;114429;-70
2022/06/16 08:47:52;;;;;;;4.60;2.68;;;;;;;24.91;70.50;100547.63;712885;1180;115903;-70
2022/06/16 09:03:07;;;;;;;4.10;2.90;;;;;;;25.20;66.18;100547.10;713149;1177;115688;-70
2022/06/16 09:18:47;;;;;;;3.05;2.40;;;;;;;24.89;65.14;100543.53;712850;1178;115300;-70
2022/06/16 09:33:59;;;;;;;3.83;2.23;;;;;;;25.08;64.80;100542.48;712629;1179;115572;-71
2022/06/16 09:49:17;;;;;;;6.10;2.80;;;;;;;26.04;64.41;100539.13;713912;1171;117454;-70
2022/06/16 10:04:40;;;;;;;;;;;;;;;26.57;61.87;100531.98;712446;1179;114753;-70
2022/06/16 10:19:45;;;;;;;3.80;2.20;;;;;;;27.51;62.77;100526.61;713482;1179;100771;-71
2022/06/16 10:34:52;;;;;;;3.30;1.70;;;;;;;28.00;60.83;100510.70;713290;1179;115163;-70
2022/06/16 10:49:55;;;;;;;6.00;2.05;;;;;;;28.15;60.11;100509.34;712865;1180;115577;-70
2022/06/16 11:05:18;;;;;;;2.80;1.80;;;;;;;28.60;60.10;100510.22;713263;1180;115657;-73
2022/06/16 11:20:41;;;;;;;3.20;1.83;;;;;;;27.89;58.42;100490.06;712952;1179;115818;-75
2022/06/16 11:35:56;;;;;;;1.83;1.65;;;;;;;29.05;57.31;100482.99;713355;1180;115865;-85
2022/06/16 11:51:12;;;;;;;5.00;2.30;;;;;;;29.50;55.85;100470.21;713032;1179;114288;-78
2022/06/16 12:06:14;;;;;;;1.80;1.47;;;;;;;29.96;53.67;100453.56;714103;1178;114305;-78
2022/06/16 12:21:49;;;;;;;5.55;2.15;;;;;;;28.78;54.99;100447.06;714924;1179;114749;-80
2022/06/16 12:36:58;;;;;;;3.67;2.17;;;;;;;27.47;56.58;100447.36;716906;1178;115818;-80
2022/06/16 12:52:08;;;;;;;3.23;1.90;;;;;;;26.75;58.01;100449.52;714620;1180;115987;-79
2022/06/16 13:07:16;;;;;;;3.93;2.63;;;;;;;25.76;62.76;100459.14;716031;1179;114418;-79
2022/06/16 13:22:35;;;;;;;5.55;2.90;;;;;;;26.29;66.50;100449.38;716086;1177;115286;-80
2022/06/16 13:37:43;;;;;;;;;;;;;;;26.68;67.25;100455.00;712882;1177;115087;-82
2022/06/16 13:53:01;;;;;;;862.00;555.70;;;;;;;27.30;67.47;100458.88;712903;1177;101784;-81
2022/06/16 14:08:14;;;;;;;509.90;397.80;;;;;;;28.20;66.63;100437.44;712667;1179;115328;-82
2022/06/16 14:23:25;;;;;;;56.67;43.17;;;;;;;28.20;63.71;100429.36;713131;1177;115965;-82
2022/06/16 14:38:53;;;;;;;33.15;26.10;;;;;;;28.01;64.22;100431.50;712871;1177;115557;-82
2022/06/16 14:54:30;;;;;;;15.90;13.60;;;;;;;28.32;62.33;100431.94;712861;1177;116134;-81
2022/06/16 15:09:40;;;;;;;11.50;7.75;;;;;;;28.38;62.33;100428.22;713347;1180;115351;-82
2022/06/16 15:24:51;;;;;;;5.50;4.65;;;;;;;28.02;62.71;100427.75;714254;1177;116011;-82
2022/06/16 15:39:54;;;;;;;6.17;4.07;;;;;;;28.36;62.64;100433.06;714705;1180;114319;-81
2022/06/16 15:55:00;;;;;;;8.28;3.78;;;;;;;27.80;62.08;100460.00;713759;1178;115542;-77
2022/06/16 16:10:07;;;;;;;5.63;2.50;;;;;;;27.10;61.40;100469.30;719185;1178;114312;-80
2022/06/16 16:25:10;;;;;;;5.50;2.80;;;;;;;26.68;61.75;100479.21;712797;1180;115075;-81
2022/06/16 16:42:59;;;;;;;3.43;2.23;;;;;;;26.02;61.38;100492.80;713658;1178;114299;-80
2022/06/16 16:55:46;;;;;;;3.20;1.73;;;;;;;25.49;61.80;100515.15;713140;1178;114409;-80
2022/06/16 17:26:14;;;;;;;5.10;1.95;;;;;;;24.92;62.11;100505.55;714160;1177;115165;-82
2022/06/16 17:41:20;;;;;;;4.30;1.80;;;;;;;24.03;62.74;100528.06;714373;1177;115980;-81
2022/06/16 18:11:44;;;;;;;20.55;7.55;;;;;;;22.33;66.07;100554.01;712838;1180;115202;-78
2022/06/16 18:26:53;;;;;;;26.40;10.17;;;;;;;21.85;66.82;100573.69;712839;1178;116081;-77
2022/06/16 18:41:59;;;;;;;9.70;4.08;;;;;;;21.31;69.10;100587.88;713879;1178;115256;-77
2022/06/16 18:57:03;;;;;;;16.33;5.83;;;;;;;20.93;70.57;100607.77;713040;1180;115958;-78
2022/06/16 19:12:18;;;;;;;14.03;7.00;;;;;;;20.54;71.83;100617.13;713039;1177;114796;-82
2022/06/16 19:27:22;;;;;;;20.65;9.95;;;;;;;20.16;73.06;100623.54;714309;1180;115858;-81
2022/06/16 19:42:25;;;;;;;13.73;7.83;;;;;;;19.67;74.43;100630.36;716366;1179;115401;-76
2022/06/16 19:57:28;;;;;;;18.88;9.30;;;;;;;19.28;76.26;100639.48;715140;1177;115786;-76
2022/06/16 20:12:31;;;;;;;14.63;7.80;;;;;;;18.88;77.67;100649.52;713915;1178;115314;-75
2022/06/16 20:27:34;;;;;;;8.70;5.65;;;;;;;18.26;79.74;100657.48;713110;1178;115445;-76
